createdAt,value
2018-12-17T00:01:13.548Z,89.60
2018-12-17T00:02:49.337Z,89.60
2018-12-17T00:04:24.414Z,89.60
2018-12-17T00:05:59.598Z,89.60
2018-12-17T00:07:35.625Z,89.70
2018-12-17T00:09:10.561Z,90.00
2018-12-17T00:10:45.511Z,90.20
2018-12-17T00:12:20.493Z,90.10
2018-12-17T00:13:55.707Z,90.00
2018-12-17T00:15:31.470Z,90.10
2018-12-17T00:17:06.944Z,90.40
2018-12-17T00:18:42.291Z,90.20
2018-12-17T00:20:17.331Z,90.10
2018-12-17T00:21:52.361Z,89.70
2018-12-17T00:23:27.304Z,90.10
2018-12-17T00:25:02.300Z,89.90
2018-12-17T00:26:37.254Z,90.00
2018-12-17T00:28:12.190Z,90.20
2018-12-17T00:29:47.125Z,90.00
2018-12-17T00:31:22.177Z,90.00
2018-12-17T00:32:57.241Z,90.10
2018-12-17T00:34:32.152Z,89.90
2018-12-17T00:36:07.172Z,89.90
2018-12-17T00:37:42.100Z,90.10
2018-12-17T00:39:17.085Z,90.20
2018-12-17T00:40:52.020Z,90.10
2018-12-17T00:42:27.076Z,90.00
2018-12-17T00:44:02.027Z,90.10
2018-12-17T00:45:37.087Z,90.10
2018-12-17T00:47:12.119Z,90.20
2018-12-17T00:48:47.205Z,90.10
2018-12-17T00:50:22.141Z,90.10
2018-12-17T00:51:57.107Z,90.20
2018-12-17T00:53:32.109Z,90.20
2018-12-17T00:55:07.549Z,90.20
2018-12-17T00:56:42.537Z,90.20
2018-12-17T00:58:17.517Z,90.40
2018-12-17T01:00:00.316Z,90.30
2018-12-17T01:01:35.390Z,90.10
2018-12-17T01:03:10.428Z,90.20
2018-12-17T01:04:50.199Z,90.30
2018-12-17T01:06:38.355Z,90.10
2018-12-17T01:08:14.769Z,90.30
2018-12-17T01:09:49.934Z,90.30
2018-12-17T01:11:24.974Z,90.30
2018-12-17T01:12:59.975Z,90.20
2018-12-17T01:14:35.012Z,90.40
2018-12-17T01:16:10.933Z,90.20
2018-12-17T01:18:00.439Z,90.40
2018-12-17T01:19:35.658Z,90.50
2018-12-17T01:21:10.721Z,90.50
2018-12-17T01:22:45.756Z,90.40
2018-12-17T01:24:27.448Z,90.50
2018-12-17T01:26:02.812Z,90.50
2018-12-17T01:27:37.845Z,90.40
2018-12-17T01:29:13.011Z,90.50
2018-12-17T01:30:48.022Z,90.50
2018-12-17T01:32:23.177Z,90.30
2018-12-17T01:33:58.232Z,90.30
2018-12-17T01:35:33.244Z,90.30
2018-12-17T01:37:08.304Z,90.50
2018-12-17T01:38:43.349Z,90.40
2018-12-17T01:40:18.417Z,90.50
2018-12-17T01:41:53.495Z,90.50
2018-12-17T01:45:39.516Z,90.40
2018-12-17T01:47:23.648Z,90.30
2018-12-17T01:50:55.474Z,90.50
2018-12-17T01:52:47.676Z,90.30
2018-12-17T01:57:23.753Z,90.40
2018-12-17T01:58:59.137Z,90.60
2018-12-17T02:00:34.662Z,90.40
2018-12-17T02:02:10.183Z,90.50
2018-12-17T02:03:45.675Z,90.30
2018-12-17T02:05:21.147Z,90.30
2018-12-17T02:06:56.643Z,90.30
2018-12-17T02:08:32.400Z,90.50
2018-12-17T02:10:07.838Z,90.40
2018-12-17T02:11:43.224Z,90.30
2018-12-17T02:13:18.852Z,90.60
2018-12-17T02:14:54.383Z,90.40
2018-12-17T02:16:30.394Z,90.60
2018-12-17T02:18:05.925Z,90.60
2018-12-17T02:19:42.352Z,90.70
2018-12-17T02:21:17.897Z,90.60
2018-12-17T02:22:53.438Z,90.60
2018-12-17T02:24:28.838Z,90.60
2018-12-17T02:26:04.422Z,90.60
2018-12-17T02:27:39.955Z,90.70
2018-12-17T02:29:15.331Z,90.60
2018-12-17T02:30:50.754Z,90.60
2018-12-17T02:32:26.324Z,90.70
2018-12-17T02:34:01.916Z,90.80
2018-12-17T02:35:37.517Z,90.80
2018-12-17T02:37:13.056Z,91.00
2018-12-17T02:38:48.626Z,91.00
2018-12-17T02:40:24.217Z,90.70
2018-12-17T02:41:59.743Z,90.80
2018-12-17T02:43:35.147Z,90.70
2018-12-17T02:45:10.893Z,90.60
2018-12-17T02:46:46.501Z,90.70
2018-12-17T02:48:21.993Z,90.80
2018-12-17T02:49:57.540Z,91.00
2018-12-17T02:51:33.034Z,91.10
2018-12-17T02:53:08.635Z,90.90
2018-12-17T02:54:44.100Z,91.00
2018-12-17T02:56:19.599Z,90.90
2018-12-17T02:57:55.147Z,90.90
2018-12-17T02:59:30.673Z,91.00
2018-12-17T03:01:06.226Z,91.10
2018-12-17T03:02:41.706Z,91.10
2018-12-17T03:04:17.142Z,91.20
2018-12-17T03:05:52.854Z,91.30
2018-12-17T03:07:28.276Z,91.50
2018-12-17T03:09:04.756Z,91.60
2018-12-17T03:10:40.274Z,91.70
2018-12-17T03:12:15.924Z,91.40
2018-12-17T03:13:51.394Z,91.50
2018-12-17T03:15:26.888Z,91.70
2018-12-17T03:17:02.337Z,91.70
2018-12-17T03:18:37.864Z,91.70
2018-12-17T03:20:13.436Z,91.60
2018-12-17T03:21:48.962Z,91.70
2018-12-17T03:23:24.532Z,91.50
2018-12-17T03:25:00.010Z,91.60
2018-12-17T03:26:35.705Z,91.50
2018-12-17T03:28:11.249Z,91.60
2018-12-17T03:29:46.716Z,91.50
2018-12-17T03:31:22.237Z,91.30
2018-12-17T03:32:57.885Z,91.30
2018-12-17T03:34:33.367Z,91.30
2018-12-17T03:36:08.803Z,91.40
2018-12-17T03:37:44.311Z,91.50
2018-12-17T03:39:19.884Z,91.40
2018-12-17T03:40:55.331Z,91.60
2018-12-17T03:42:30.900Z,91.40
2018-12-17T03:44:06.514Z,91.60
2018-12-17T03:45:42.103Z,91.70
2018-12-17T03:47:17.791Z,91.80
2018-12-17T03:48:53.265Z,91.70
2018-12-17T03:50:28.785Z,91.70
2018-12-17T03:52:04.218Z,91.80
2018-12-17T03:53:39.824Z,91.90
2018-12-17T03:55:15.323Z,91.90
2018-12-17T03:56:50.834Z,92.00
2018-12-17T03:58:26.362Z,91.90
2018-12-17T04:00:01.952Z,91.90
2018-12-17T04:01:37.351Z,91.80
2018-12-17T04:03:12.857Z,91.80
2018-12-17T04:04:48.628Z,91.70
2018-12-17T04:06:24.095Z,91.80
2018-12-17T04:07:59.512Z,91.70
2018-12-17T04:09:34.970Z,91.80
2018-12-17T04:11:10.461Z,91.80
2018-12-17T04:12:52.641Z,91.90
2018-12-17T04:14:28.191Z,92.00
2018-12-17T04:16:03.745Z,91.80
2018-12-17T04:17:39.307Z,92.10
2018-12-17T04:19:14.926Z,92.00
2018-12-17T04:20:50.431Z,92.00
2018-12-17T04:22:25.991Z,92.00
2018-12-17T04:24:01.522Z,92.10
2018-12-17T04:25:37.848Z,92.50
2018-12-17T04:27:13.329Z,92.10
2018-12-17T04:28:48.797Z,92.20
2018-12-17T04:30:24.287Z,92.20
2018-12-17T04:31:59.857Z,92.40
2018-12-17T04:33:35.300Z,92.60
2018-12-17T04:35:10.782Z,92.60
2018-12-17T04:36:46.286Z,92.60
2018-12-17T04:38:21.726Z,92.50
2018-12-17T04:39:57.244Z,92.40
2018-12-17T04:41:32.670Z,92.40
2018-12-17T04:43:08.066Z,92.40
2018-12-17T04:44:43.504Z,92.40
2018-12-17T04:46:19.025Z,92.60
2018-12-17T04:47:54.457Z,92.70
2018-12-17T04:49:29.924Z,92.80
2018-12-17T04:51:06.768Z,92.90
2018-12-17T04:52:42.259Z,92.90
2018-12-17T04:54:17.788Z,93.00
2018-12-17T04:55:53.350Z,93.10
2018-12-17T04:57:28.977Z,93.20
2018-12-17T04:59:04.386Z,93.20
2018-12-17T05:00:39.916Z,93.30
2018-12-17T05:02:15.474Z,93.30
2018-12-17T05:03:51.270Z,93.30
2018-12-17T05:05:26.814Z,93.40
2018-12-17T05:07:02.288Z,93.40
2018-12-17T05:08:37.840Z,93.50
2018-12-17T05:10:13.667Z,93.50
2018-12-17T05:11:49.061Z,93.60
2018-12-17T05:13:24.581Z,93.60
2018-12-17T05:14:59.962Z,93.80
2018-12-17T05:16:35.489Z,93.90
2018-12-17T05:18:10.937Z,93.70
2018-12-17T05:19:46.423Z,93.50
2018-12-17T05:21:21.864Z,93.60
2018-12-17T05:22:57.400Z,93.80
2018-12-17T05:24:33.122Z,93.90
2018-12-17T05:26:08.687Z,93.90
2018-12-17T05:27:44.132Z,93.90
2018-12-17T05:29:21.721Z,93.90
2018-12-17T05:30:56.980Z,93.90
2018-12-17T05:32:32.583Z,93.90
2018-12-17T05:34:08.075Z,93.80
2018-12-17T05:35:43.466Z,93.80
2018-12-17T05:37:19.386Z,94.00
2018-12-17T05:38:54.835Z,94.00
2018-12-17T05:40:30.676Z,94.10
2018-12-17T05:42:06.230Z,93.90
2018-12-17T05:43:41.930Z,94.00
2018-12-17T05:45:17.454Z,93.90
2018-12-17T05:46:53.048Z,94.10
2018-12-17T05:48:31.103Z,94.00
2018-12-17T05:50:07.449Z,94.10
2018-12-17T05:51:42.977Z,94.20
2018-12-17T05:53:18.634Z,94.10
2018-12-17T05:54:54.185Z,94.40
2018-12-17T05:56:29.749Z,94.30
2018-12-17T05:58:05.446Z,94.40
2018-12-17T05:59:41.196Z,94.30
2018-12-17T06:01:16.909Z,94.30
2018-12-17T06:02:53.240Z,94.20
2018-12-17T06:04:32.265Z,94.20
2018-12-17T06:06:08.109Z,94.10
2018-12-17T06:07:43.978Z,94.10
2018-12-17T06:09:19.863Z,94.10
2018-12-17T06:10:55.790Z,94.10
2018-12-17T06:12:31.503Z,94.10
2018-12-17T06:14:07.272Z,93.90
2018-12-17T06:15:42.994Z,94.30
2018-12-17T06:17:18.640Z,94.40
2018-12-17T06:18:54.534Z,94.30
2018-12-17T06:20:30.288Z,94.10
2018-12-17T06:22:06.320Z,94.40
2018-12-17T06:23:42.186Z,94.40
2018-12-17T06:25:18.026Z,94.40
2018-12-17T06:26:53.748Z,94.40
2018-12-17T06:28:29.571Z,94.50
2018-12-17T06:30:05.770Z,94.60
2018-12-17T06:31:41.587Z,94.60
2018-12-17T06:33:17.304Z,94.40
2018-12-17T06:34:53.290Z,94.40
2018-12-17T06:36:28.891Z,94.60
2018-12-17T06:38:04.774Z,94.70
2018-12-17T06:39:40.642Z,94.80
2018-12-17T06:41:16.371Z,94.70
2018-12-17T06:42:52.019Z,94.80
2018-12-17T06:44:27.755Z,94.70
2018-12-17T06:46:03.609Z,94.70
2018-12-17T06:47:39.217Z,94.60
2018-12-17T06:49:15.223Z,95.00
2018-12-17T06:50:50.890Z,94.70
2018-12-17T06:52:26.745Z,94.70
2018-12-17T06:54:02.421Z,94.80
2018-12-17T06:55:38.258Z,94.70
2018-12-17T06:57:14.091Z,94.70
2018-12-17T06:58:49.782Z,94.70
2018-12-17T07:00:25.019Z,94.80
2018-12-17T07:02:00.188Z,94.70
2018-12-17T07:03:35.091Z,94.60
2018-12-17T07:05:10.068Z,94.70
2018-12-17T07:06:45.043Z,94.70
2018-12-17T07:08:19.999Z,94.60
2018-12-17T07:09:55.195Z,94.50
2018-12-17T07:11:30.092Z,94.50
2018-12-17T07:13:05.070Z,94.60
2018-12-17T07:14:40.211Z,94.50
2018-12-17T07:16:15.227Z,94.40
2018-12-17T07:17:50.127Z,94.30
2018-12-17T07:19:25.063Z,94.30
2018-12-17T07:20:59.934Z,94.30
2018-12-17T07:22:37.843Z,94.40
2018-12-17T07:24:12.809Z,94.40
2018-12-17T07:25:47.707Z,94.30
2018-12-17T07:27:22.607Z,94.40
2018-12-17T07:28:57.487Z,94.40
2018-12-17T07:30:32.519Z,94.40
2018-12-17T07:32:07.505Z,94.30
2018-12-17T07:33:42.440Z,94.20
2018-12-17T07:35:17.363Z,94.20
2018-12-17T07:36:52.392Z,94.20
2018-12-17T07:38:27.379Z,94.10
2018-12-17T07:40:02.355Z,94.20
2018-12-17T07:41:38.076Z,94.20
2018-12-17T07:43:12.982Z,93.90
2018-12-17T07:44:48.011Z,94.00
2018-12-17T07:46:22.959Z,93.90
2018-12-17T07:47:57.885Z,93.80
2018-12-17T07:49:32.803Z,93.70
2018-12-17T07:51:07.758Z,93.70
2018-12-17T07:52:42.672Z,93.80
2018-12-17T07:54:17.622Z,93.80
2018-12-17T07:55:52.709Z,93.70
2018-12-17T07:57:27.616Z,93.60
2018-12-17T07:59:02.895Z,93.50
2018-12-17T08:00:37.980Z,93.50
2018-12-17T08:02:12.929Z,93.50
2018-12-17T08:03:47.880Z,93.50
2018-12-17T08:05:22.882Z,93.40
2018-12-17T08:06:57.790Z,93.10
2018-12-17T08:08:35.585Z,93.50
2018-12-17T08:10:09.948Z,93.30
2018-12-17T08:11:44.967Z,93.30
2018-12-17T08:13:20.131Z,93.20
2018-12-17T08:14:55.052Z,93.00
2018-12-17T08:16:30.121Z,92.90
2018-12-17T08:18:21.843Z,92.90
2018-12-17T08:19:56.755Z,92.90
2018-12-17T08:21:31.733Z,92.80
2018-12-17T08:23:06.609Z,92.50
2018-12-17T08:24:41.528Z,92.60
2018-12-17T08:26:16.472Z,92.60
2018-12-17T08:27:51.399Z,92.40
2018-12-17T08:29:26.399Z,92.50
2018-12-17T08:31:01.385Z,92.70
2018-12-17T08:32:36.311Z,92.20
2018-12-17T08:34:11.256Z,92.20
2018-12-17T08:35:46.317Z,92.20
2018-12-17T08:37:21.320Z,92.20
2018-12-17T08:38:56.365Z,92.10
2018-12-17T08:40:31.315Z,92.00
2018-12-17T08:42:06.276Z,92.00
2018-12-17T08:43:41.203Z,91.90
2018-12-17T08:45:16.215Z,92.00
2018-12-17T08:46:51.200Z,91.70
2018-12-17T08:48:26.116Z,91.40
2018-12-17T08:50:01.017Z,91.60
2018-12-17T08:51:36.053Z,91.40
2018-12-17T08:53:10.952Z,91.60
2018-12-17T08:54:46.140Z,91.60
2018-12-17T08:56:27.636Z,91.50
2018-12-17T08:58:02.571Z,91.10
2018-12-17T08:59:37.492Z,91.10
2018-12-17T09:01:12.413Z,91.00
2018-12-17T09:02:47.365Z,91.00
2018-12-17T09:04:22.708Z,90.80
2018-12-17T09:05:57.627Z,91.00
2018-12-17T09:07:32.504Z,90.90
2018-12-17T09:09:08.819Z,90.90
2018-12-17T09:10:43.846Z,90.90
2018-12-17T09:12:18.742Z,90.80
2018-12-17T09:13:53.686Z,90.70
2018-12-17T09:15:28.605Z,90.90
2018-12-17T09:17:03.579Z,90.90
2018-12-17T09:18:38.539Z,90.60
2018-12-17T09:20:13.498Z,90.70
2018-12-17T09:21:48.452Z,90.80
2018-12-17T09:23:23.507Z,90.50
2018-12-17T09:24:58.465Z,90.60
2018-12-17T09:26:33.471Z,90.60
2018-12-17T09:28:08.387Z,90.40
2018-12-17T09:29:43.360Z,90.50
2018-12-17T09:31:18.243Z,90.30
2018-12-17T09:32:53.477Z,90.40
2018-12-17T09:34:28.420Z,90.40
2018-12-17T09:36:03.383Z,90.60
2018-12-17T09:37:38.309Z,90.20
2018-12-17T09:39:13.307Z,90.20
2018-12-17T09:40:48.228Z,90.20
2018-12-17T09:42:23.189Z,90.10
2018-12-17T09:43:58.115Z,90.10
2018-12-17T09:45:33.120Z,90.30
2018-12-17T09:47:08.127Z,90.30
2018-12-17T09:48:43.120Z,90.00
2018-12-17T09:50:18.054Z,90.00
2018-12-17T09:51:53.043Z,90.00
2018-12-17T09:53:27.948Z,90.00
2018-12-17T09:55:02.934Z,90.00
2018-12-17T09:56:37.889Z,89.90
2018-12-17T09:58:12.832Z,89.80
2018-12-17T09:59:47.844Z,89.80
2018-12-17T10:01:22.799Z,89.60
2018-12-17T10:02:57.712Z,89.20
2018-12-17T10:04:32.645Z,89.20
2018-12-17T10:06:07.604Z,89.00
2018-12-17T10:07:42.551Z,89.10
2018-12-17T10:09:17.739Z,88.80
2018-12-17T10:10:52.633Z,88.40
2018-12-17T10:12:27.568Z,88.40
2018-12-17T10:14:02.481Z,88.50
2018-12-17T10:15:37.449Z,88.50
2018-12-17T10:17:12.395Z,89.10
2018-12-17T10:18:47.332Z,88.40
2018-12-17T10:20:22.256Z,88.30
2018-12-17T10:21:57.500Z,88.20
2018-12-17T10:23:32.432Z,87.50
2018-12-17T10:25:07.682Z,87.20
2018-12-17T10:26:42.669Z,88.00
2018-12-17T10:28:17.605Z,88.30
2018-12-17T10:29:52.546Z,87.80
2018-12-17T10:31:27.842Z,87.90
2018-12-17T10:33:02.785Z,88.10
2018-12-17T10:34:37.689Z,88.70
2018-12-17T10:36:12.596Z,88.60
2018-12-17T10:37:47.638Z,89.60
2018-12-17T10:39:22.709Z,89.30
2018-12-17T10:40:57.682Z,89.30
2018-12-17T10:42:32.643Z,89.20
2018-12-17T10:44:07.617Z,89.00
2018-12-17T10:45:42.510Z,89.20
2018-12-17T10:47:17.442Z,89.00
2018-12-17T10:48:52.414Z,89.10
2018-12-17T10:50:27.387Z,88.80
2018-12-17T10:52:02.373Z,89.10
2018-12-17T10:53:37.365Z,88.70
2018-12-17T10:55:12.603Z,88.70
2018-12-17T10:56:47.547Z,88.80
2018-12-17T10:58:22.528Z,89.20
2018-12-17T10:59:57.639Z,87.90
2018-12-17T11:01:37.821Z,86.80
2018-12-17T11:03:18.223Z,85.90
2018-12-17T11:04:58.902Z,87.00
2018-12-17T11:06:33.852Z,86.30
2018-12-17T11:08:08.758Z,85.80
2018-12-17T11:09:48.131Z,86.00
2018-12-17T11:11:23.191Z,86.10
2018-12-17T11:12:58.284Z,86.90
2018-12-17T11:14:33.220Z,85.90
2018-12-17T11:16:08.240Z,86.60
2018-12-17T11:17:44.699Z,85.80
2018-12-17T11:19:19.999Z,86.30
2018-12-17T11:20:54.954Z,84.60
2018-12-17T11:22:29.961Z,84.90
2018-12-17T11:24:05.214Z,85.10
2018-12-17T11:25:40.111Z,84.80
2018-12-17T11:27:15.024Z,83.90
2018-12-17T11:28:50.012Z,81.50
2018-12-17T11:30:24.987Z,79.70
2018-12-17T11:31:59.955Z,77.40
2018-12-17T11:33:34.860Z,76.30
2018-12-17T11:35:09.889Z,75.30
2018-12-17T11:36:44.944Z,74.60
2018-12-17T11:38:19.967Z,75.80
2018-12-17T11:39:54.836Z,76.40
2018-12-17T11:41:29.780Z,76.70
2018-12-17T11:43:04.764Z,77.50
2018-12-17T11:44:39.679Z,78.10
2018-12-17T11:46:14.688Z,77.70
2018-12-17T11:47:49.596Z,77.30
2018-12-17T11:49:24.524Z,77.60
2018-12-17T11:50:59.451Z,77.60
2018-12-17T11:52:34.371Z,76.40
2018-12-17T11:54:09.389Z,76.40
2018-12-17T11:55:44.333Z,75.90
2018-12-17T11:58:12.565Z,75.60
2018-12-17T11:59:47.503Z,75.40
2018-12-17T12:01:22.426Z,74.70
2018-12-17T12:02:59.320Z,73.20
2018-12-17T12:04:34.434Z,72.20
2018-12-17T12:06:13.888Z,72.50
2018-12-17T12:07:46.375Z,72.90
2018-12-17T12:09:26.351Z,71.60
2018-12-17T12:11:01.315Z,71.50
2018-12-17T12:12:36.309Z,72.00
2018-12-17T12:14:11.250Z,70.40
2018-12-17T12:15:46.215Z,69.40
2018-12-17T12:17:21.249Z,68.20
2018-12-17T12:18:56.188Z,66.10
2018-12-17T12:20:31.158Z,65.00
2018-12-17T12:22:06.115Z,65.00
2018-12-17T12:23:41.135Z,65.20
2018-12-17T12:25:16.070Z,65.80
2018-12-17T12:26:50.979Z,66.40
2018-12-17T12:28:25.949Z,67.30
2018-12-17T12:30:01.132Z,68.20
2018-12-17T12:31:36.104Z,68.10
2018-12-17T12:33:11.024Z,68.50
2018-12-17T12:34:49.022Z,69.80
2018-12-17T12:36:23.992Z,71.50
2018-12-17T12:37:58.939Z,73.10
2018-12-17T12:39:33.902Z,75.20
2018-12-17T12:41:09.116Z,75.70
2018-12-17T12:42:51.376Z,76.00
2018-12-17T12:44:21.816Z,77.00
2018-12-17T12:46:01.823Z,77.80
2018-12-17T12:47:37.314Z,77.50
2018-12-17T12:49:12.558Z,78.40
2018-12-17T12:50:48.042Z,79.40
2018-12-17T12:52:24.097Z,80.10
2018-12-17T12:54:00.843Z,79.70
2018-12-17T12:55:35.935Z,80.50
2018-12-17T12:57:11.023Z,81.10
2018-12-17T12:58:46.107Z,81.50
2018-12-17T13:00:21.319Z,81.10
2018-12-17T13:01:56.706Z,81.00
2018-12-17T13:03:33.675Z,81.50
2018-12-17T13:05:09.065Z,81.40
2018-12-17T13:06:44.351Z,81.50
2018-12-17T13:08:19.537Z,81.70
2018-12-17T13:09:57.186Z,81.90
2018-12-17T13:11:33.907Z,82.30
2018-12-17T13:13:09.147Z,82.50
2018-12-17T13:14:44.106Z,83.20
2018-12-17T13:16:19.148Z,83.80
2018-12-17T13:17:54.661Z,84.10
2018-12-17T13:19:29.737Z,84.40
2018-12-17T13:21:04.650Z,84.50
2018-12-17T13:22:39.553Z,84.30
2018-12-17T13:24:14.551Z,84.70
2018-12-17T13:25:49.992Z,84.90
2018-12-17T13:27:24.934Z,84.80
2018-12-17T13:28:59.875Z,84.90
2018-12-17T13:30:34.871Z,85.00
2018-12-17T13:32:09.961Z,85.60
2018-12-17T13:33:49.053Z,85.50
2018-12-17T13:35:24.494Z,85.00
2018-12-17T13:37:01.069Z,85.50
2018-12-17T13:38:38.091Z,85.60
2018-12-17T13:40:13.458Z,85.70
2018-12-17T13:41:48.449Z,85.70
2018-12-17T13:43:23.444Z,85.90
2018-12-17T13:44:58.577Z,86.30
2018-12-17T13:46:33.578Z,86.60
2018-12-17T13:48:08.509Z,86.70
2018-12-17T13:49:43.432Z,86.80
2018-12-17T13:51:24.004Z,86.60
2018-12-17T13:53:04.045Z,86.50
2018-12-17T13:54:38.983Z,86.90
2018-12-17T13:56:13.932Z,87.10
2018-12-17T13:57:48.889Z,87.20
2018-12-17T13:59:23.935Z,87.20
2018-12-17T14:00:58.888Z,87.20
2018-12-17T14:02:33.831Z,87.20
2018-12-17T14:04:08.811Z,87.20
2018-12-17T14:05:43.809Z,87.40
2018-12-17T14:07:18.776Z,87.40
2018-12-17T14:08:53.688Z,87.30
2018-12-17T14:10:33.760Z,87.50
2018-12-17T14:12:08.829Z,87.70
2018-12-17T14:13:43.737Z,87.70
2018-12-17T14:15:18.685Z,88.00
2018-12-17T14:16:58.812Z,87.90
2018-12-17T14:18:38.986Z,88.00
2018-12-17T14:20:19.120Z,88.10
2018-12-17T14:22:00.168Z,88.20
2018-12-17T14:23:35.376Z,88.00
2018-12-17T14:25:10.498Z,88.40
2018-12-17T14:26:45.395Z,88.00
2018-12-17T14:28:20.380Z,87.70
2018-12-17T14:29:55.368Z,88.60
2018-12-17T14:31:30.341Z,87.70
2018-12-17T14:33:05.257Z,87.80
2018-12-17T14:34:40.232Z,87.80
2018-12-17T14:36:15.253Z,88.20
2018-12-17T14:37:55.316Z,88.70
2018-12-17T14:39:30.307Z,88.80
2018-12-17T14:41:05.413Z,89.00
2018-12-17T14:42:40.423Z,88.90
2018-12-17T14:44:20.511Z,89.00
2018-12-17T14:45:55.470Z,89.20
2018-12-17T14:47:30.388Z,89.50
2018-12-17T14:49:05.359Z,89.70
2018-12-17T14:50:40.323Z,89.90
2018-12-17T14:52:15.293Z,90.10
2018-12-17T14:53:50.269Z,90.20
2018-12-17T14:55:25.335Z,90.30
2018-12-17T14:57:00.320Z,90.30
2018-12-17T14:58:35.303Z,90.30
2018-12-17T15:00:10.780Z,90.40
2018-12-17T15:01:45.827Z,90.40
2018-12-17T15:03:20.768Z,90.40
2018-12-17T15:04:55.696Z,90.30
2018-12-17T15:06:30.687Z,90.30
2018-12-17T15:08:12.236Z,90.30
2018-12-17T15:09:47.213Z,90.30
2018-12-17T15:11:22.201Z,90.30
2018-12-17T15:12:57.151Z,90.30
2018-12-17T15:14:32.135Z,90.40
2018-12-17T15:16:07.084Z,90.30
2018-12-17T15:17:43.157Z,90.40
2018-12-17T15:19:18.130Z,90.40
2018-12-17T15:20:53.164Z,90.40
2018-12-17T15:22:28.142Z,90.30
2018-12-17T15:24:03.100Z,90.50
2018-12-17T15:25:38.069Z,90.40
2018-12-17T15:27:13.107Z,90.40
2018-12-17T15:28:48.053Z,90.50
2018-12-17T15:30:23.038Z,90.60
2018-12-17T15:31:58.080Z,90.60
2018-12-17T15:33:32.989Z,90.60
2018-12-17T15:35:08.133Z,90.70
2018-12-17T15:36:43.096Z,90.80
2018-12-17T15:38:18.082Z,90.70
2018-12-17T15:39:53.046Z,90.80
2018-12-17T15:41:27.967Z,90.70
2018-12-17T15:43:02.883Z,90.80
2018-12-17T15:44:37.851Z,90.90
2018-12-17T15:46:12.791Z,90.90
2018-12-17T15:47:47.696Z,90.90
2018-12-17T15:49:22.685Z,90.90
2018-12-17T15:50:57.717Z,90.90
2018-12-17T15:52:32.680Z,91.00
2018-12-17T15:54:07.664Z,90.90
2018-12-17T15:55:42.617Z,91.00
2018-12-17T15:57:17.588Z,91.00
2018-12-17T15:58:52.551Z,91.00
2018-12-17T16:00:27.491Z,91.10
2018-12-17T16:02:09.092Z,91.10
2018-12-17T16:03:44.009Z,91.00
2018-12-17T16:05:18.946Z,91.10
2018-12-17T16:06:53.884Z,91.10
2018-12-17T16:08:28.837Z,91.10
2018-12-17T16:10:03.948Z,91.10
2018-12-17T16:11:38.907Z,91.20
2018-12-17T16:13:13.834Z,91.30
2018-12-17T16:14:48.860Z,91.30
2018-12-17T16:16:23.823Z,91.30
2018-12-17T16:17:58.805Z,91.40
2018-12-17T16:19:33.756Z,91.40
2018-12-17T16:21:08.767Z,91.20
2018-12-17T16:22:43.681Z,91.20
2018-12-17T16:24:18.587Z,91.30
2018-12-17T16:25:53.611Z,91.40
2018-12-17T16:27:28.627Z,91.40
2018-12-17T16:29:03.553Z,91.40
2018-12-17T16:30:38.564Z,91.40
2018-12-17T16:32:13.536Z,91.50
2018-12-17T16:33:48.605Z,91.50
2018-12-17T16:35:23.530Z,91.50
2018-12-17T16:36:58.572Z,91.50
2018-12-17T16:38:33.525Z,91.40
2018-12-17T16:40:09.255Z,91.40
2018-12-17T16:41:44.173Z,91.40
2018-12-17T16:43:19.096Z,91.50
2018-12-17T16:44:54.028Z,91.50
2018-12-17T16:46:28.982Z,91.60
2018-12-17T16:48:03.960Z,91.60
2018-12-17T16:49:38.945Z,91.50
2018-12-17T16:51:13.860Z,91.50
2018-12-17T16:52:48.863Z,91.60
2018-12-17T16:54:23.888Z,91.60
2018-12-17T16:55:58.847Z,91.70
2018-12-17T16:57:33.785Z,91.70
2018-12-17T16:59:08.819Z,91.70
2018-12-17T17:00:43.757Z,91.80
2018-12-17T17:02:18.753Z,91.70
2018-12-17T17:03:53.728Z,91.80
2018-12-17T17:05:28.670Z,91.90
2018-12-17T17:07:03.628Z,91.90
2018-12-17T17:08:38.666Z,92.00
2018-12-17T17:10:13.619Z,91.90
2018-12-17T17:11:48.588Z,91.90
2018-12-17T17:13:23.535Z,91.90
2018-12-17T17:14:58.532Z,91.90
2018-12-17T17:16:33.707Z,91.90
2018-12-17T17:18:08.632Z,91.90
2018-12-17T17:19:50.582Z,91.90
2018-12-17T17:21:20.624Z,91.90
2018-12-17T17:22:55.523Z,91.90
2018-12-17T17:24:30.456Z,92.00
2018-12-17T17:26:05.440Z,91.90
2018-12-17T17:27:40.491Z,92.00
2018-12-17T17:29:15.455Z,91.90
2018-12-17T17:30:50.359Z,92.20
2018-12-17T17:32:25.284Z,92.00
2018-12-17T17:34:00.315Z,92.10
2018-12-17T17:35:35.281Z,92.10
2018-12-17T17:37:10.255Z,92.10
2018-12-17T17:38:45.199Z,92.20
2018-12-17T17:40:20.254Z,92.20
2018-12-17T17:41:55.211Z,92.20
2018-12-17T17:43:30.172Z,92.20
2018-12-17T17:45:05.919Z,92.20
2018-12-17T17:46:40.969Z,92.20
2018-12-17T17:48:15.944Z,92.20
2018-12-17T17:49:50.853Z,92.30
2018-12-17T17:51:25.792Z,92.20
2018-12-17T17:53:00.895Z,92.30
2018-12-17T17:54:35.825Z,92.40
2018-12-17T17:56:10.792Z,92.40
2018-12-17T17:57:46.344Z,92.40
2018-12-17T17:59:21.707Z,92.40
2018-12-17T18:00:57.636Z,92.40
2018-12-17T18:02:32.725Z,92.40
2018-12-17T18:04:07.874Z,92.30
2018-12-17T18:05:42.838Z,92.20
2018-12-17T18:07:19.290Z,92.10
2018-12-17T18:08:54.342Z,92.10
2018-12-17T18:10:29.303Z,92.10
2018-12-17T18:12:04.296Z,92.10
2018-12-17T18:13:39.240Z,92.10
2018-12-17T18:15:14.199Z,92.10
2018-12-17T18:16:49.142Z,92.00
2018-12-17T18:18:24.661Z,92.00
2018-12-17T18:19:59.572Z,92.10
2018-12-17T18:21:34.812Z,92.00
2018-12-17T18:23:09.732Z,92.00
2018-12-17T18:24:44.737Z,92.10
2018-12-17T18:26:19.720Z,91.90
2018-12-17T18:27:55.125Z,92.00
2018-12-17T18:29:30.511Z,92.10
2018-12-17T18:31:05.485Z,92.00
2018-12-17T18:32:40.508Z,92.00
2018-12-17T18:34:22.244Z,92.00
2018-12-17T18:35:57.302Z,92.10
2018-12-17T18:37:38.796Z,92.10
2018-12-17T18:39:14.157Z,92.10
2018-12-17T18:40:49.323Z,92.10
2018-12-17T18:42:24.371Z,92.10
2018-12-17T18:43:59.328Z,92.10
2018-12-17T18:45:34.287Z,92.00
2018-12-17T18:47:09.216Z,92.10
2018-12-17T18:48:44.215Z,92.10
2018-12-17T18:50:19.513Z,92.10
2018-12-17T18:51:54.411Z,92.10
2018-12-17T18:53:29.359Z,92.10
2018-12-17T18:55:04.622Z,92.20
2018-12-17T18:56:39.584Z,92.30
2018-12-17T18:58:14.542Z,92.20
2018-12-17T18:59:49.464Z,92.30
2018-12-17T19:01:24.483Z,92.40
2018-12-17T19:02:59.447Z,92.40
2018-12-17T19:04:34.590Z,92.40
2018-12-17T19:06:09.526Z,92.50
2018-12-17T19:07:44.650Z,92.90
2018-12-17T19:09:19.617Z,92.60
2018-12-17T19:10:54.716Z,92.70
2018-12-17T19:12:29.636Z,92.70
2018-12-17T19:14:04.754Z,92.70
2018-12-17T19:15:39.704Z,92.70
2018-12-17T19:17:14.615Z,92.80
2018-12-17T19:18:49.635Z,92.70
2018-12-17T19:20:28.067Z,92.80
2018-12-17T19:22:03.307Z,92.90
2018-12-17T19:23:38.336Z,93.00
2018-12-17T19:25:13.863Z,93.00
2018-12-17T19:26:49.335Z,92.80
2018-12-17T19:28:24.886Z,92.70
2018-12-17T19:29:59.845Z,92.70
2018-12-17T19:31:34.985Z,92.50
2018-12-17T19:33:09.928Z,92.50
2018-12-17T19:34:44.868Z,92.60
2018-12-17T19:36:20.713Z,92.50
2018-12-17T19:37:55.828Z,92.60
2018-12-17T19:39:30.938Z,92.30
2018-12-17T19:41:07.486Z,92.40
2018-12-17T19:42:44.432Z,92.50
2018-12-17T19:44:19.430Z,92.60
2018-12-17T19:45:54.581Z,92.70
2018-12-17T19:47:36.140Z,92.80
2018-12-17T19:49:11.113Z,92.60
2018-12-17T19:50:46.048Z,92.50
2018-12-17T19:52:21.044Z,92.40
2018-12-17T19:53:56.037Z,92.40
2018-12-17T19:55:30.975Z,92.50
2018-12-17T19:57:05.962Z,92.50
2018-12-17T19:58:41.005Z,92.50
2018-12-17T20:00:16.430Z,92.40
2018-12-17T20:01:51.374Z,92.40
2018-12-17T20:03:26.684Z,92.40
2018-12-17T20:05:01.697Z,92.50
2018-12-17T20:06:36.634Z,92.50
2018-12-17T20:08:11.557Z,92.50
2018-12-17T20:09:46.511Z,92.50
2018-12-17T20:11:21.543Z,92.60
2018-12-17T20:12:56.746Z,92.50
2018-12-17T20:14:31.828Z,92.50
2018-12-17T20:16:06.776Z,92.60
2018-12-17T20:17:41.693Z,92.60
2018-12-17T20:19:16.611Z,92.60
2018-12-17T20:20:51.580Z,92.80
2018-12-17T20:22:26.524Z,92.80
2018-12-17T20:24:01.493Z,92.60
2018-12-17T20:25:36.458Z,92.80
2018-12-17T20:27:12.283Z,92.80
2018-12-17T20:28:47.173Z,92.80
2018-12-17T20:30:24.883Z,92.90
2018-12-17T20:31:59.838Z,93.00
2018-12-17T20:33:34.813Z,93.00
2018-12-17T20:35:10.531Z,93.00
2018-12-17T20:36:45.440Z,93.60
2018-12-17T20:38:20.388Z,93.40